Time;durP1;ratioP1;P1;durP2;ratioP2;P2;SDS_P1;SDS_P2;PMS_P1;PMS_P2;Temp;Humidity;BMP_temperature;BMP_pressure;BME280_temperature;BME280_humidity;BME280_pressure;Samples;Min_cycle;Max_cycle;Signal;HPM_P1;HPM_P2
2021/12/15 00:00:12;;;;;;;14.33;10.07;;;;;;;4.33;100.00;99998.56;5031751;28;20696;-63
2021/12/15 00:02:39;;;;;;;12.97;10.27;;;;;;;4.30;100.00;99981.41;5031303;28;20209;-62
2021/12/15 00:05:08;;;;;;;11.40;8.93;;;;;;;4.41;100.00;100002.00;5031790;28;20282;-64
2021/12/15 00:07:37;;;;;;;13.13;10.23;;;;;;;4.33;100.00;100012.28;5031433;28;20287;-63
2021/12/15 00:10:05;;;;;;;14.10;10.37;;;;;;;4.37;100.00;100015.72;5031497;28;20645;-63
2021/12/15 00:12:32;;;;;;;15.00;10.57;;;;;;;4.27;100.00;100017.41;5031347;28;20263;-63
2021/12/15 00:14:59;;;;;;;11.37;9.70;;;;;;;4.33;100.00;100032.81;5031409;28;20201;-63
2021/12/15 00:17:26;;;;;;;14.80;10.20;;;;;;;4.19;100.00;100028.47;5031613;28;20734;-62
2021/12/15 00:19:53;;;;;;;13.30;9.40;;;;;;;4.27;100.00;100037.09;5031586;28;20665;-62
2021/12/15 00:22:22;;;;;;;14.23;10.63;;;;;;;4.24;100.00;100029.38;5031208;28;20267;-63
2021/12/15 00:24:50;;;;;;;13.57;9.97;;;;;;;4.27;100.00;100030.25;5031221;28;20792;-62
2021/12/15 00:27:18;;;;;;;12.40;10.53;;;;;;;4.20;100.00;100025.91;5031087;28;20647;-63
2021/12/15 00:29:45;;;;;;;12.77;10.20;;;;;;;4.17;100.00;100030.19;5031076;28;20288;-63
2021/12/15 00:32:12;;;;;;;12.87;10.77;;;;;;;4.19;100.00;100034.47;5030512;28;20232;-63
2021/12/15 00:34:40;;;;;;;11.47;10.03;;;;;;;4.16;100.00;100031.91;5030889;28;20229;-64
2021/12/15 00:37:08;;;;;;;15.77;11.13;;;;;;;4.20;100.00;100032.75;5031223;28;20224;-63
2021/12/15 00:39:35;;;;;;;13.83;10.77;;;;;;;4.14;100.00;100036.16;5030771;28;20297;-63
2021/12/15 00:42:05;;;;;;;15.10;11.73;;;;;;;4.03;100.00;100024.97;5030673;28;20280;-63
2021/12/15 00:44:32;;;;;;;17.40;11.40;;;;;;;4.12;100.00;100008.75;5030796;28;20232;-64
2021/12/15 00:46:59;;;;;;;16.63;12.10;;;;;;;4.24;100.00;100027.66;5030881;28;20499;-65
2021/12/15 00:49:26;;;;;;;14.03;11.13;;;;;;;4.21;100.00;100025.06;5030769;28;20216;-63
2021/12/15 00:51:53;;;;;;;17.30;11.67;;;;;;;4.27;100.00;100035.38;5030564;28;20295;-63
2021/12/15 00:54:22;;;;;;;16.00;11.13;;;;;;;4.35;100.00;100022.56;5030446;28;20284;-64
2021/12/15 00:56:50;;;;;;;15.93;11.20;;;;;;;4.02;100.00;99987.28;5030482;28;20685;-63
2021/12/15 00:59:18;;;;;;;18.20;12.70;;;;;;;4.02;100.00;100000.13;5030730;28;20239;-65
2021/12/15 01:01:45;;;;;;;15.57;11.60;;;;;;;4.20;100.00;100031.03;5030546;28;20256;-64
2021/12/15 01:04:16;;;;;;;15.90;11.57;;;;;;;4.04;100.00;100007.84;5030302;28;20317;-64
2021/12/15 01:06:46;;;;;;;15.60;11.03;;;;;;;4.25;100.00;100031.94;5030354;28;20294;-63
2021/12/15 01:09:17;;;;;;;14.73;10.90;;;;;;;4.34;100.00;100016.56;5030311;28;20219;-64
2021/12/15 01:12:06;;;;;;;13.30;10.17;;;;;;;4.31;100.00;100029.38;5030492;28;20205;-64
2021/12/15 01:20:06;;;;;;;17.63;10.80;;;;;;;4.18;100.00;100025.03;5030493;28;20255;-62
2021/12/15 01:22:38;;;;;;;14.90;10.20;;;;;;;4.09;100.00;100021.56;5030372;28;20624;-64
2021/12/15 01:25:09;;;;;;;13.53;9.90;;;;;;;4.20;100.00;100033.63;5030298;28;20327;-64
2021/12/15 01:27:36;;;;;;;12.60;9.50;;;;;;;4.35;100.00;100038.84;5030720;28;20276;-64
2021/12/15 01:30:07;;;;;;;12.10;9.67;;;;;;;4.32;100.00;100030.25;5030146;28;20229;-63
2021/12/15 01:32:34;;;;;;;13.53;10.10;;;;;;;4.37;100.00;100019.16;5030046;28;20194;-64
2021/12/15 01:35:01;;;;;;;12.13;9.23;;;;;;;4.46;100.00;100040.59;5030147;28;20292;-64
2021/12/15 01:37:28;;;;;;;12.30;9.60;;;;;;;4.33;100.00;100037.97;5029928;28;20193;-63
2021/12/15 01:39:56;;;;;;;14.30;9.93;;;;;;;4.45;100.00;100033.72;5029998;28;20201;-64
2021/12/15 01:42:25;;;;;;;12.60;9.40;;;;;;;4.32;100.00;100031.09;5029859;28;20202;-63
2021/12/15 01:48:00;;;;;;;13.90;9.50;;;;;;;4.41;100.00;100034.56;4992645;28;20194;-64
2021/12/15 01:50:27;;;;;;;15.17;9.50;;;;;;;4.36;100.00;100032.84;5027024;28;20668;-63
2021/12/15 01:52:54;;;;;;;13.20;9.70;;;;;;;4.37;100.00;100026.88;5033921;28;20280;-64
2021/12/15 01:55:23;;;;;;;13.07;9.60;;;;;;;4.44;100.00;100025.16;5034207;28;20194;-64
2021/12/15 01:57:50;;;;;;;13.47;9.10;;;;;;;4.40;100.00;100032.88;5034125;28;20363;-64
2021/12/15 02:00:22;;;;;;;12.53;9.17;;;;;;;4.40;100.00;100023.44;5034065;28;20300;-64
2021/12/15 02:02:51;;;;;;;12.70;9.70;;;;;;;4.44;100.00;100027.72;5033802;28;20229;-64
2021/12/15 02:05:19;;;;;;;12.20;9.23;;;;;;;4.36;100.00;100017.44;5033717;28;20804;-63
2021/12/15 02:07:48;;;;;;;10.27;8.47;;;;;;;4.45;100.00;100031.16;5033581;28;20231;-64
2021/12/15 02:10:16;;;;;;;11.50;9.03;;;;;;;4.38;100.00;100017.44;5033590;28;20205;-64
2021/12/15 02:12:44;;;;;;;10.17;8.37;;;;;;;4.38;100.00;100025.16;5033532;28;20720;-64
2021/12/15 02:15:14;;;;;;;11.03;8.73;;;;;;;4.34;100.00;100029.41;5033668;28;20289;-64
2021/12/15 02:17:42;;;;;;;11.10;8.77;;;;;;;4.37;100.00;100023.44;5033415;28;20287;-64
2021/12/15 02:20:14;;;;;;;12.83;9.40;;;;;;;4.36;100.00;100014.00;5033507;28;20597;-64
2021/12/15 02:22:44;;;;;;;10.87;9.37;;;;;;;4.32;100.00;100015.69;5033401;28;20244;-64
2021/12/15 02:25:14;;;;;;;11.87;9.57;;;;;;;4.31;100.00;100011.41;5033311;28;20256;-64
2021/12/15 02:27:42;;;;;;;11.90;9.97;;;;;;;4.36;100.00;100008.88;5033415;28;20213;-63
2021/12/15 02:30:27;;;;;;;11.80;9.33;;;;;;;4.38;100.00;100008.03;5033517;28;20591;-63
2021/12/15 02:33:09;;;;;;;11.30;9.37;;;;;;;4.38;100.00;100010.59;5033235;28;20206;-63
2021/12/15 02:38:29;;;;;;;10.57;8.73;;;;;;;4.25;100.00;100003.69;5033244;28;20196;-63
2021/12/15 02:41:05;;;;;;;10.50;8.47;;;;;;;4.15;100.00;99981.38;5032853;28;20240;-64
2021/12/15 02:43:33;;;;;;;11.33;9.33;;;;;;;4.30;100.00;99998.53;5033025;28;20204;-63
2021/12/15 02:46:00;;;;;;;10.77;8.07;;;;;;;4.31;100.00;99998.56;5032955;28;20609;-64
2021/12/15 02:48:27;;;;;;;12.43;9.63;;;;;;;4.37;100.00;100002.88;5032877;28;20229;-64
2021/12/15 02:50:54;;;;;;;11.03;8.03;;;;;;;4.37;100.00;99993.44;5032997;28;20233;-63
2021/12/15 02:53:21;;;;;;;10.93;8.87;;;;;;;4.48;100.00;99997.78;5032863;28;20233;-63
2021/12/15 02:55:50;;;;;;;9.90;8.00;;;;;;;4.41;100.00;99993.44;5032605;28;20284;-63
2021/12/15 02:58:19;;;;;;;9.47;7.80;;;;;;;4.47;100.00;99994.34;5032976;28;20583;-63
2021/12/15 03:00:52;;;;;;;13.47;9.10;;;;;;;4.39;100.00;99985.75;5032807;28;20673;-63
2021/12/15 03:04:03;;;;;;;8.83;7.93;;;;;;;4.42;100.00;99987.44;5032751;28;20201;-64
2021/12/15 03:06:37;;;;;;;9.67;7.67;;;;;;;4.32;100.00;99971.16;5032701;28;20225;-63
2021/12/15 03:09:27;;;;;;;10.90;7.90;;;;;;;4.35;100.00;99973.72;5032788;28;20591;-63
2021/12/15 03:17:21;;;;;;;10.10;8.10;;;;;;;4.41;100.00;99983.16;5031066;28;20197;-63
2021/12/15 03:19:48;;;;;;;7.87;7.17;;;;;;;4.32;100.00;99979.72;5032429;28;20292;-62
2021/12/15 03:22:15;;;;;;;7.73;6.93;;;;;;;4.18;100.00;99952.25;5032290;28;20227;-63
2021/12/15 03:24:42;;;;;;;9.23;7.10;;;;;;;4.38;100.00;99981.47;5032213;28;20205;-62
2021/12/15 03:27:16;;;;;;;8.90;7.23;;;;;;;4.38;100.00;99979.75;5032238;28;20276;-62
2021/12/15 03:35:21;;;;;;;8.10;7.27;;;;;;;4.18;100.00;99963.38;4998932;28;20342;-61
2021/12/15 03:37:50;;;;;;;8.23;7.43;;;;;;;4.40;100.00;99976.34;5032060;28;20288;-62
2021/12/15 03:40:20;;;;;;;8.50;7.50;;;;;;;4.43;100.00;99982.31;5032019;28;20282;-63
2021/12/15 03:42:51;;;;;;;8.70;7.50;;;;;;;4.37;100.00;99993.44;5032087;28;20201;-62
2021/12/15 03:45:24;;;;;;;8.63;7.10;;;;;;;4.45;100.00;99995.19;5031856;28;20232;-61
2021/12/15 03:47:51;;;;;;;7.50;6.67;;;;;;;4.53;100.00;100003.75;5031951;28;20296;-62
2021/12/15 03:50:22;;;;;;;8.63;6.70;;;;;;;4.45;100.00;99998.59;5031921;28;20284;-63
2021/12/15 03:52:49;;;;;;;8.77;7.20;;;;;;;4.50;100.00;99998.63;5031793;28;20284;-62
2021/12/15 03:55:18;;;;;;;7.97;6.77;;;;;;;4.28;100.00;99965.16;5031831;28;20200;-62
2021/12/15 03:57:45;;;;;;;8.20;7.03;;;;;;;4.44;100.00;99998.59;5031831;28;20193;-64
2021/12/15 04:00:17;;;;;;;8.03;7.23;;;;;;;4.43;100.00;99996.88;5031348;28;20687;-64
2021/12/15 04:02:45;;;;;;;9.23;7.60;;;;;;;4.30;100.00;99996.84;5030500;28;20237;-63
2021/12/15 04:05:14;;;;;;;9.37;7.23;;;;;;;4.36;100.00;100002.00;5030928;28;20248;-62
2021/12/15 04:07:41;;;;;;;9.87;7.30;;;;;;;4.29;100.00;99977.13;5034696;28;20231;-61
2021/12/15 04:10:12;;;;;;;7.93;7.13;;;;;;;4.35;100.00;99974.59;5040147;28;20277;-61
2021/12/15 04:12:40;;;;;;;10.30;8.00;;;;;;;4.46;100.00;100002.03;5038528;28;20201;-61
2021/12/15 04:15:20;;;;;;;8.67;7.23;;;;;;;4.43;100.00;100002.03;5037578;28;20258;-61
2021/12/15 04:17:49;;;;;;;8.90;8.00;;;;;;;4.40;100.00;100004.59;5037496;28;20193;-62
2021/12/15 04:20:24;;;;;;;11.03;8.07;;;;;;;4.41;100.00;100008.84;5038954;28;20200;-62
2021/12/15 04:22:51;;;;;;;11.63;8.07;;;;;;;4.44;100.00;100020.03;5038902;28;20279;-61
2021/12/15 04:25:23;;;;;;;9.97;8.40;;;;;;;4.51;100.00;100021.78;5038433;28;20209;-60
2021/12/15 04:27:57;;;;;;;11.43;8.60;;;;;;;4.30;100.00;99989.13;5039750;28;20297;-60
2021/12/15 04:30:26;;;;;;;11.73;8.23;;;;;;;4.47;100.00;100021.75;5036346;28;20283;-61
2021/12/15 04:32:57;;;;;;;11.37;8.03;;;;;;;4.40;100.00;100022.59;5039223;28;20204;-61
2021/12/15 04:35:24;;;;;;;11.13;8.70;;;;;;;4.40;100.00;100028.59;5034050;28;20284;-59
2021/12/15 04:37:52;;;;;;;11.07;8.67;;;;;;;4.37;100.00;100026.00;5043955;28;20229;-60
2021/12/15 04:40:21;;;;;;;10.77;8.80;;;;;;;4.37;100.00;100026.88;5038187;28;20204;-60
2021/12/15 04:42:49;;;;;;;11.53;9.13;;;;;;;4.45;100.00;100036.31;5037355;28;20221;-59
2021/12/15 04:45:19;;;;;;;11.53;8.83;;;;;;;4.36;100.00;100032.00;5031132;28;20334;-59
2021/12/15 04:47:46;;;;;;;10.73;8.57;;;;;;;4.30;100.00;100030.25;5030820;28;20297;-60
2021/12/15 04:50:15;;;;;;;12.00;9.70;;;;;;;4.34;100.00;100036.25;5030709;28;20574;-59
2021/12/15 04:52:42;;;;;;;10.83;8.53;;;;;;;4.34;100.00;100039.69;5030681;28;20224;-59
2021/12/15 04:55:10;;;;;;;11.47;9.13;;;;;;;4.33;100.00;100037.97;5030379;28;20237;-59
2021/12/15 04:57:37;;;;;;;10.37;8.87;;;;;;;4.29;100.00;100040.50;5014337;28;20701;-59
2021/12/15 05:00:10;;;;;;;13.30;10.00;;;;;;;4.32;100.00;100049.09;5009883;28;20317;-60
2021/12/15 05:02:36;;;;;;;13.43;9.43;;;;;;;4.40;100.00;100058.56;5010215;28;20687;-63
2021/12/15 05:05:05;;;;;;;10.57;8.37;;;;;;;4.41;100.00;100049.97;5010532;28;20676;-61
2021/12/15 05:07:33;;;;;;;12.90;9.43;;;;;;;4.39;100.00;100050.00;5024275;28;20307;-60
2021/12/15 05:10:00;;;;;;;11.63;9.43;;;;;;;4.35;100.00;100055.97;5029865;28;20291;-60
2021/12/15 05:12:28;;;;;;;12.30;9.73;;;;;;;4.27;100.00;100053.38;5030036;28;20257;-61
2021/12/15 05:14:55;;;;;;;14.07;10.33;;;;;;;4.25;100.00;100059.34;5028707;28;20243;-61
2021/12/15 05:17:22;;;;;;;11.07;9.43;;;;;;;4.26;100.00;100067.06;5028625;28;20228;-62
2021/12/15 05:19:49;;;;;;;14.33;10.13;;;;;;;4.26;100.00;100063.63;5030702;28;20228;-62
2021/12/15 05:22:17;;;;;;;12.63;9.73;;;;;;;4.29;100.00;100067.06;5028517;28;20231;-61
2021/12/15 05:24:45;;;;;;;13.33;10.07;;;;;;;4.11;100.00;100049.00;5028663;28;20221;-61
2021/12/15 05:27:15;;;;;;;12.00;9.87;;;;;;;4.07;100.00;100044.66;5028200;28;20700;-61
2021/12/15 05:29:44;;;;;;;12.70;9.40;;;;;;;4.07;100.00;100072.94;5027957;28;20639;-62
2021/12/15 05:32:16;;;;;;;13.60;9.73;;;;;;;4.08;100.00;100072.06;5028142;28;20221;-61
2021/12/15 05:34:43;;;;;;;13.93;10.30;;;;;;;4.08;100.00;100081.50;5028420;28;20216;-61
2021/12/15 05:37:10;;;;;;;14.33;10.00;;;;;;;4.08;100.00;100087.50;5027257;28;20308;-61
2021/12/15 05:39:39;;;;;;;16.27;10.83;;;;;;;4.03;100.00;100090.91;5029664;28;20735;-63
2021/12/15 05:42:08;;;;;;;14.27;10.10;;;;;;;4.07;100.00;100090.03;5029056;28;20707;-62
2021/12/15 05:44:36;;;;;;;17.50;10.70;;;;;;;3.95;100.00;100070.31;5028875;28;20299;-62
2021/12/15 05:47:06;;;;;;;15.20;10.57;;;;;;;4.12;100.00;100101.22;5029168;28;20236;-61
2021/12/15 05:49:34;;;;;;;15.63;10.53;;;;;;;4.00;100.00;100078.88;5029944;28;20231;-62
2021/12/15 05:52:01;;;;;;;14.60;11.20;;;;;;;4.21;100.00;100103.84;5049140;28;20282;-62
2021/12/15 05:54:29;;;;;;;14.23;10.33;;;;;;;4.23;100.00;100102.16;5049351;28;20655;-62
2021/12/15 05:56:56;;;;;;;15.40;10.80;;;;;;;4.24;100.00;100104.72;5049120;28;20221;-61
2021/12/15 05:59:25;;;;;;;15.53;11.13;;;;;;;4.28;100.00;100111.63;5048750;28;20307;-62
2021/12/15 06:01:52;;;;;;;15.43;10.57;;;;;;;4.32;100.00;100110.78;5042063;28;20681;-62
2021/12/15 06:04:21;;;;;;;16.50;11.90;;;;;;;4.31;100.00;100116.75;5027953;28;20267;-63
2021/12/15 06:06:49;;;;;;;18.73;11.30;;;;;;;4.40;100.00;100117.69;5029425;28;20316;-63
2021/12/15 06:09:16;;;;;;;17.90;11.93;;;;;;;4.40;100.00;100117.69;5029253;28;20233;-63
2021/12/15 06:11:47;;;;;;;17.17;12.30;;;;;;;4.45;100.00;100118.56;5029268;28;20304;-63
2021/12/15 06:14:22;;;;;;;16.43;12.03;;;;;;;4.51;100.00;100124.59;5028524;28;20249;-62
2021/12/15 06:16:51;;;;;;;17.33;12.70;;;;;;;4.50;100.00;100122.03;5029259;28;20224;-62
2021/12/15 06:19:18;;;;;;;20.87;13.47;;;;;;;4.52;100.00;100130.56;5029304;28;20312;-62
2021/12/15 06:21:46;;;;;;;20.27;13.33;;;;;;;4.56;100.00;100132.31;5047726;28;20715;-61
2021/12/15 06:24:13;;;;;;;18.17;13.50;;;;;;;4.64;100.00;100136.66;5048945;28;20299;-61
2021/12/15 06:26:40;;;;;;;18.37;12.33;;;;;;;4.60;100.00;100134.94;5049346;28;20289;-62
2021/12/15 06:29:07;;;;;;;24.57;13.50;;;;;;;4.66;100.00;100134.94;5048245;28;20392;-62
2021/12/15 06:31:34;;;;;;;19.67;12.40;;;;;;;4.66;100.00;100139.22;5032636;28;20264;-62
2021/12/15 06:34:03;;;;;;;16.90;12.20;;;;;;;4.68;100.00;100132.38;5032825;28;20255;-61
2021/12/15 06:36:30;;;;;;;20.37;12.83;;;;;;;4.73;100.00;100141.00;5032611;28;20267;-62
2021/12/15 06:38:58;;;;;;;19.63;13.97;;;;;;;4.80;100.00;100135.00;5032611;28;20225;-61
2021/12/15 06:41:25;;;;;;;19.53;12.90;;;;;;;4.77;100.00;100137.56;5031442;28;20221;-61
2021/12/15 06:43:57;;;;;;;19.37;13.17;;;;;;;4.81;100.00;100147.03;5030976;28;20308;-61
2021/12/15 06:46:52;;;;;;;19.60;12.80;;;;;;;4.67;100.00;100140.94;5031302;28;20232;-61
2021/12/15 07:00:15;;;;;;;39.83;14.00;;;;;;;5.01;100.00;100147.09;5023496;28;20221;-62
2021/12/15 07:02:42;;;;;;;32.77;14.40;;;;;;;5.11;100.00;100139.41;5032525;28;20268;-62
2021/12/15 07:05:12;;;;;;;24.50;13.97;;;;;;;5.21;100.00;100149.72;5031633;28;20221;-62
2021/12/15 07:07:41;;;;;;;21.10;14.00;;;;;;;5.30;100.00;100153.22;5031115;28;20232;-62
2021/12/15 07:10:11;;;;;;;19.90;13.93;;;;;;;5.36;100.00;100150.63;5029240;28;20228;-63
2021/12/15 07:12:38;;;;;;;22.77;14.10;;;;;;;5.36;100.00;100130.03;5031604;28;20226;-61
2021/12/15 07:15:07;;;;;;;20.63;13.30;;;;;;;5.57;100.00;100159.25;5032070;28;20279;-61
2021/12/15 07:17:36;;;;;;;22.27;14.13;;;;;;;5.60;100.00;100164.41;5032220;28;20755;-61
2021/12/15 07:20:17;;;;;;;23.03;15.00;;;;;;;5.46;100.00;100159.25;5036479;28;20387;-61
2021/12/15 07:22:45;;;;;;;25.57;14.50;;;;;;;5.30;100.00;100165.22;5052170;28;20220;-61
2021/12/15 07:25:15;;;;;;;23.50;15.27;;;;;;;5.35;100.00;100158.34;5051843;28;20311;-61
2021/12/15 07:27:43;;;;;;;22.23;14.40;;;;;;;5.35;100.00;100164.38;5051121;28;20232;-61
2021/12/15 07:30:12;;;;;;;20.30;13.47;;;;;;;5.46;100.00;100161.81;5051671;28;20402;-61
2021/12/15 07:32:39;;;;;;;22.97;14.23;;;;;;;5.61;100.00;100171.28;5051781;28;20311;-59
2021/12/15 07:35:08;;;;;;;21.07;13.67;;;;;;;5.60;100.00;100178.16;5051362;28;21375;-60
2021/12/15 07:37:37;;;;;;;18.93;13.03;;;;;;;5.73;100.00;100177.31;5051927;28;20220;-59
2021/12/15 07:40:11;;;;;;;22.23;12.97;;;;;;;5.74;100.00;100168.75;5036550;28;20795;-60
2021/12/15 07:42:56;;;;;;;41.33;14.30;;;;;;;5.72;100.00;100165.31;5029937;28;20251;-59
2021/12/15 07:45:24;;;;;;;30.87;14.70;;;;;;;5.63;100.00;100173.03;5031353;28;20268;-60
2021/12/15 07:47:53;;;;;;;23.57;13.90;;;;;;;5.79;100.00;100164.44;5031645;28;20240;-60
2021/12/15 07:50:21;;;;;;;24.20;13.30;;;;;;;5.87;100.00;100173.91;5038358;28;20225;-59
2021/12/15 07:52:50;;;;;;;47.27;13.93;;;;;;;6.05;100.00;100173.94;5051349;28;20765;-60
2021/12/15 07:55:19;;;;;;;30.30;14.37;;;;;;;6.25;100.00;100181.66;5051019;28;20311;-60
2021/12/15 07:57:46;;;;;;;18.23;12.53;;;;;;;6.24;100.00;100185.94;5050588;28;20220;-59
2021/12/15 08:33:16;;;;;;;18.70;13.43;;;;;;;6.50;100.00;100207.41;5029838;28;20232;-62
2021/12/15 08:35:45;;;;;;;18.63;12.07;;;;;;;6.43;100.00;100208.25;5031174;28;20226;-61
2021/12/15 08:38:14;;;;;;;15.40;11.73;;;;;;;6.42;100.00;100211.75;5030910;28;20265;-60
2021/12/15 08:40:42;;;;;;;17.93;10.70;;;;;;;6.48;100.00;100213.44;5039223;28;20256;-60
2021/12/15 08:43:10;;;;;;;18.47;11.13;;;;;;;6.63;100.00;100217.72;5026043;28;20404;-62
2021/12/15 08:45:40;;;;;;;23.83;11.80;;;;;;;6.69;100.00;100205.66;5034260;28;20225;-61
2021/12/15 08:48:09;;;;;;;101.37;19.63;;;;;;;6.67;100.00;100184.16;5030756;28;20220;-60
2021/12/15 08:50:38;;;;;;;54.87;14.03;;;;;;;6.80;100.00;100177.25;5030595;28;20208;-60
2021/12/15 08:53:09;;;;;;;115.53;17.87;;;;;;;7.17;100.00;100212.41;5030369;28;20313;-62
2021/12/15 08:55:36;;;;;;;34.53;12.17;;;;;;;7.20;100.00;100212.41;5030585;28;20620;-62
2021/12/15 08:58:05;;;;;;;186.83;22.07;;;;;;;7.23;100.00;100202.03;5026697;28;20308;-64
2021/12/15 09:00:33;;;;;;;42.03;14.13;;;;;;;7.46;100.00;100219.16;5037502;28;20233;-63
2021/12/15 09:03:00;;;;;;;45.93;13.37;;;;;;;7.49;100.00;100212.25;5039878;28;20308;-61
2021/12/15 09:05:29;;;;;;;30.00;11.73;;;;;;;7.19;100.00;100213.25;5041805;28;20229;-62
2021/12/15 09:07:58;;;;;;;19.93;12.03;;;;;;;7.19;100.00;100221.00;5030221;28;20275;-61
2021/12/15 09:10:29;;;;;;;22.97;12.03;;;;;;;7.16;100.00;100217.56;5029979;28;20275;-63
2021/12/15 09:12:57;;;;;;;168.03;19.27;;;;;;;7.28;100.00;100226.13;5030022;28;20229;-62
2021/12/15 09:15:24;;;;;;;93.73;16.30;;;;;;;7.31;100.00;100224.41;5030288;28;20298;-61
2021/12/15 09:17:52;;;;;;;41.50;13.00;;;;;;;7.35;100.00;100223.50;5030132;28;20251;-62
2021/12/15 09:20:22;;;;;;;40.80;14.07;;;;;;;7.23;100.00;100207.19;5030280;28;20743;-62
2021/12/15 09:22:51;;;;;;;56.33;14.37;;;;;;;7.18;100.00;100216.69;5030210;28;20291;-61
2021/12/15 09:25:18;;;;;;;26.43;12.23;;;;;;;6.87;100.00;100189.28;5030072;28;20193;-62
2021/12/15 09:27:46;;;;;;;25.53;12.63;;;;;;;6.79;100.00;100186.72;5030203;28;20341;-63
2021/12/15 09:30:16;;;;;;;30.87;12.70;;;;;;;7.09;100.00;100214.16;5029972;28;20227;-62
2021/12/15 09:32:43;;;;;;;19.73;12.10;;;;;;;7.12;100.00;100216.72;5029901;28;20265;-61
2021/12/15 09:35:12;;;;;;;17.87;11.73;;;;;;;7.24;100.00;100206.34;5027335;28;20310;-62
2021/12/15 09:37:40;;;;;;;83.30;15.73;;;;;;;7.12;100.00;100221.88;5029245;28;20714;-61
2021/12/15 09:40:12;;;;;;;38.90;13.80;;;;;;;6.93;100.00;100213.34;5029684;28;20256;-62
2021/12/15 09:42:40;;;;;;;30.83;14.90;;;;;;;7.00;100.00;100215.91;5029057;28;20221;-64
2021/12/15 09:45:23;;;;;;;37.57;13.17;;;;;;;7.17;100.00;100217.56;5029343;28;20261;-64
2021/12/15 09:48:04;;;;;;;27.63;12.87;;;;;;;7.20;100.00;100214.97;5028776;28;20256;-62
2021/12/15 09:56:40;;;;;;;17.67;11.40;;;;;;;7.16;100.00;100212.41;5029774;28;20631;-64
2021/12/15 10:02:12;;;;;;;14.87;11.17;;;;;;;7.23;100.00;100214.94;5028558;28;20213;-64
2021/12/15 10:04:48;;;;;;;14.40;11.67;;;;;;;7.22;100.00;100215.81;5018467;28;20208;-64
2021/12/15 10:10:37;;;;;;;20.77;12.17;;;;;;;7.37;100.00;100214.03;5032540;28;20298;-64
2021/12/15 10:18:32;;;;;;;16.33;11.50;;;;;;;7.61;100.00;100221.66;5031543;28;20285;-63
2021/12/15 10:21:00;;;;;;;21.43;11.47;;;;;;;7.65;100.00;100224.22;5033214;28;20274;-63
2021/12/15 10:23:35;;;;;;;18.73;11.50;;;;;;;7.62;100.00;100213.03;5033565;28;20280;-62
2021/12/15 10:26:04;;;;;;;16.00;11.57;;;;;;;7.53;100.00;100219.13;5033304;28;20287;-63
2021/12/15 10:28:38;;;;;;;18.03;11.73;;;;;;;7.52;100.00;100216.56;5033480;28;20768;-63
2021/12/15 10:31:08;;;;;;;17.73;12.37;;;;;;;7.34;100.00;100196.81;5032907;28;20197;-63
2021/12/15 10:33:41;;;;;;;20.00;11.97;;;;;;;7.49;100.00;100212.25;5033219;28;20588;-62
2021/12/15 10:36:12;;;;;;;24.27;12.60;;;;;;;7.56;100.00;100224.25;5033060;28;20208;-61
2021/12/15 10:38:43;;;;;;;24.80;12.73;;;;;;;7.47;100.00;100219.16;5033180;28;20193;-63
2021/12/15 10:41:14;;;;;;;20.57;12.67;;;;;;;7.45;100.00;100225.22;5033026;28;20209;-63
2021/12/15 10:43:44;;;;;;;16.03;11.17;;;;;;;7.27;100.00;100211.50;5032972;28;20198;-64
2021/12/15 10:46:14;;;;;;;24.97;11.83;;;;;;;7.16;100.00;100213.25;5033123;28;20204;-63
2021/12/15 10:48:51;;;;;;;21.87;11.80;;;;;;;7.26;100.00;100209.78;5032690;28;20217;-63
2021/12/15 10:51:27;;;;;;;20.80;11.63;;;;;;;7.26;100.00;100208.91;5032735;28;20236;-62
2021/12/15 10:53:56;;;;;;;21.23;11.17;;;;;;;7.41;100.00;100208.00;5032807;28;20721;-64
2021/12/15 10:56:26;;;;;;;229.70;26.90;;;;;;;7.33;100.00;100215.78;5032882;28;20623;-62
2021/12/15 10:58:57;;;;;;;67.57;15.03;;;;;;;7.43;100.00;100207.13;5032649;28;20658;-63
2021/12/15 11:01:41;;;;;;;26.97;11.97;;;;;;;7.50;100.00;100208.81;5032689;28;20201;-62
2021/12/15 11:04:22;;;;;;;22.47;12.43;;;;;;;7.51;100.00;100205.34;5032692;28;20243;-62
2021/12/15 11:07:09;;;;;;;31.47;11.83;;;;;;;7.40;100.00;100203.69;5032463;28;20232;-61
2021/12/15 11:09:39;;;;;;;21.27;12.37;;;;;;;7.49;100.00;100201.06;5032428;28;20284;-63
2021/12/15 11:12:10;;;;;;;24.63;12.33;;;;;;;7.64;100.00;100206.16;5032778;28;20201;-63
2021/12/15 11:14:40;;;;;;;15.40;10.40;;;;;;;7.41;100.00;100205.41;5032594;28;20757;-66
2021/12/15 11:17:12;;;;;;;18.67;11.53;;;;;;;7.49;100.00;100201.91;5032668;28;20292;-65
2021/12/15 11:19:43;;;;;;;21.13;12.30;;;;;;;7.43;100.00;100201.97;5032308;28;20637;-64
2021/12/15 11:22:47;;;;;;;26.10;13.53;;;;;;;7.43;100.00;100196.81;5032299;28;20203;-63
2021/12/15 11:25:20;;;;;;;22.43;13.17;;;;;;;7.52;100.00;100204.50;5032280;28;20700;-62
2021/12/15 11:27:51;;;;;;;23.63;12.33;;;;;;;7.49;100.00;100201.91;5032151;28;20699;-61
2021/12/15 11:30:26;;;;;;;22.20;13.20;;;;;;;7.22;100.00;100202.91;5032077;28;20693;-66
2021/12/15 11:32:56;;;;;;;19.57;12.10;;;;;;;7.31;100.00;100207.19;5031899;28;20311;-64
2021/12/15 11:35:26;;;;;;;19.97;12.73;;;;;;;7.24;100.00;100203.75;5031942;28;20197;-63
2021/12/15 11:37:58;;;;;;;20.37;12.70;;;;;;;7.25;100.00;100208.06;5031955;28;20232;-62
2021/12/15 11:40:36;;;;;;;20.87;11.40;;;;;;;7.19;100.00;100192.59;5031873;28;20293;-64
2021/12/15 11:43:04;;;;;;;28.40;11.63;;;;;;;7.15;100.00;100201.22;5031929;28;20236;-64
2021/12/15 11:45:33;;;;;;;14.77;11.63;;;;;;;7.09;100.00;100211.59;5032143;28;20198;-63
2021/12/15 11:48:19;;;;;;;20.70;12.53;;;;;;;7.04;100.00;100204.69;5031943;28;20267;-63
2021/12/15 11:50:48;;;;;;;18.97;12.23;;;;;;;6.87;100.00;100203.06;5031836;28;20276;-63
2021/12/15 11:53:36;;;;;;;17.17;12.23;;;;;;;6.96;100.00;100206.47;5031719;28;20594;-62
2021/12/15 11:56:26;;;;;;;16.53;11.90;;;;;;;6.84;100.00;100194.44;5031741;28;20236;-62
2021/12/15 11:58:57;;;;;;;16.67;10.77;;;;;;;6.86;100.00;100196.16;5031713;28;20738;-62
2021/12/15 12:01:59;;;;;;;17.33;11.93;;;;;;;6.94;100.00;100206.47;5031671;28;20197;-62
2021/12/15 12:04:31;;;;;;;13.43;10.63;;;;;;;6.94;100.00;100203.88;4970568;28;20612;-61
2021/12/15 12:07:12;;;;;;;16.63;11.33;;;;;;;6.81;100.00;100207.34;5020905;28;20210;-63
2021/12/15 12:09:40;;;;;;;25.77;10.70;;;;;;;6.74;100.00;100198.78;5031853;28;20289;-61
2021/12/15 12:12:08;;;;;;;24.70;11.37;;;;;;;6.72;100.00;100199.63;5031320;28;20201;-62
2021/12/15 12:14:43;;;;;;;18.63;11.30;;;;;;;6.65;100.00;100206.56;5031096;28;20232;-61
2021/12/15 12:17:15;;;;;;;17.57;11.10;;;;;;;6.79;100.00;100206.50;5031422;28;20204;-61
2021/12/15 12:19:47;;;;;;;17.03;11.37;;;;;;;6.87;100.00;100207.34;5031035;28;20229;-61
2021/12/15 12:22:15;;;;;;;14.67;11.20;;;;;;;6.88;100.00;100198.75;5031186;28;20716;-62
2021/12/15 12:24:45;;;;;;;15.10;11.53;;;;;;;6.96;100.00;100199.56;5031073;28;20197;-62
2021/12/15 12:27:13;;;;;;;15.70;11.00;;;;;;;6.78;100.00;100174.66;5030712;28;20197;-62
2021/12/15 12:29:41;;;;;;;15.80;10.80;;;;;;;6.85;100.00;100202.19;5031356;28;20670;-62
2021/12/15 12:32:09;;;;;;;14.40;10.93;;;;;;;6.75;100.00;100181.59;5031040;28;20264;-61
2021/12/15 12:34:37;;;;;;;20.13;11.00;;;;;;;6.95;100.00;100204.75;5030930;28;20284;-62
2021/12/15 12:37:05;;;;;;;20.37;11.90;;;;;;;6.90;100.00;100207.31;5030891;28;20295;-62
2021/12/15 12:39:34;;;;;;;34.80;12.47;;;;;;;6.76;100.00;100197.06;5030993;28;20248;-62
2021/12/15 12:42:02;;;;;;;210.60;24.10;;;;;;;6.80;100.00;100200.47;5030913;28;20284;-63
2021/12/15 12:44:36;;;;;;;58.27;12.53;;;;;;;6.83;100.00;100191.00;5030846;28;20292;-62
2021/12/15 12:47:09;;;;;;;30.90;10.97;;;;;;;6.77;100.00;100192.75;5030765;28;20287;-62
2021/12/15 12:50:06;;;;;;;21.73;10.27;;;;;;;6.78;100.00;100191.88;5030632;28;20293;-62
2021/12/15 13:01:14;;;;;;;19.37;10.47;;;;;;;6.78;100.00;100177.25;5008176;28;20720;-61